Time;durP1;ratioP1;P1;durP2;ratioP2;P2;SDS_P1;SDS_P2;PMS_P1;PMS_P2;Temp;Humidity;BMP_temperature;BMP_pressure;BME280_temperature;BME280_humidity;BME280_pressure;Samples;Min_cycle;Max_cycle;Signal;HPM_P1;HPM_P2
2021/01/19 00:00:35;;;;;;;12.05;2.15;;;10.20;99.90;;;;;;6279981;22;20083;-87
2021/01/19 00:03:02;;;;;;;11.32;1.40;;;10.20;99.90;;;;;;6280077;22;20072;-87
2021/01/19 00:05:28;;;;;;;11.32;1.48;;;10.20;99.90;;;;;;6280351;22;20092;-87
2021/01/19 00:07:55;;;;;;;8.75;1.63;;;10.20;99.90;;;;;;6280882;22;20015;-87
2021/01/19 00:10:21;;;;;;;10.75;1.70;;;10.20;99.90;;;;;;6280502;22;20030;-87
2021/01/19 00:12:48;;;;;;;11.05;1.50;;;10.20;99.90;;;;;;6279397;22;20012;-87
2021/01/19 00:15:14;;;;;;;14.00;1.70;;;10.20;99.90;;;;;;6273561;22;20058;-87
2021/01/19 00:17:41;;;;;;;14.50;1.83;;;10.20;99.90;;;;;;6275077;22;20111;-86
2021/01/19 00:20:09;;;;;;;15.00;1.80;;;10.20;99.90;;;;;;6274569;22;20012;-87
2021/01/19 00:22:36;;;;;;;13.93;1.73;;;10.20;99.90;;;;;;6275110;22;20019;-87
2021/01/19 00:25:04;;;;;;;10.68;1.30;;;10.20;99.90;;;;;;6275243;22;20074;-87
2021/01/19 00:27:30;;;;;;;9.02;1.70;;;10.20;99.90;;;;;;6274921;22;20016;-87
2021/01/19 00:29:57;;;;;;;12.18;1.50;;;10.20;99.90;;;;;;6274987;22;20020;-87
2021/01/19 00:32:23;;;;;;;13.98;1.65;;;10.20;99.90;;;;;;6274755;22;20020;-87
2021/01/19 00:34:50;;;;;;;12.93;2.17;;;10.20;99.90;;;;;;6274638;22;20038;-87
2021/01/19 00:37:16;;;;;;;12.93;1.40;;;10.20;99.90;;;;;;6274680;22;20012;-87
2021/01/19 00:39:43;;;;;;;17.05;2.40;;;10.20;99.90;;;;;;6274464;22;20015;-87
2021/01/19 00:42:09;;;;;;;11.65;1.92;;;10.20;99.90;;;;;;6275020;22;20089;-87
2021/01/19 00:44:36;;;;;;;19.13;2.15;;;10.20;99.90;;;;;;6274921;22;20447;-87
2021/01/19 00:47:04;;;;;;;20.75;2.17;;;10.20;99.90;;;;;;6274960;22;20012;-87
2021/01/19 00:49:30;;;;;;;22.40;2.40;;;10.20;99.90;;;;;;6276025;22;20020;-87
2021/01/19 00:51:56;;;;;;;21.33;3.30;;;10.20;99.90;;;;;;6274941;22;20015;-86
2021/01/19 00:54:23;;;;;;;17.42;2.35;;;10.20;99.90;;;;;;6274569;22;20023;-87
2021/01/19 00:56:49;;;;;;;16.27;2.30;;;10.20;99.90;;;;;;6274780;22;20051;-86
2021/01/19 00:59:16;;;;;;;19.48;2.40;;;10.20;99.90;;;;;;6275063;22;20028;-86
2021/01/19 01:01:47;;;;;;;23.42;2.40;;;10.20;99.90;;;;;;6275032;22;20011;-87
2021/01/19 01:04:14;;;;;;;17.80;1.80;;;10.20;99.90;;;;;;6274652;22;20059;-86
2021/01/19 01:06:41;;;;;;;14.15;2.40;;;10.20;99.90;;;;;;6274796;22;20020;-87
2021/01/19 01:09:07;;;;;;;20.95;2.10;;;10.20;99.90;;;;;;6274586;22;20016;-87
2021/01/19 01:11:43;;;;;;;15.75;1.70;;;10.20;99.90;;;;;;6274875;22;20019;-86
2021/01/19 01:14:10;;;;;;;18.48;2.33;;;10.20;99.90;;;;;;6273699;22;20463;-86
2021/01/19 01:16:37;;;;;;;14.75;1.38;;;10.20;99.90;;;;;;6274319;22;20024;-87
2021/01/19 01:19:05;;;;;;;12.60;1.10;;;10.20;99.90;;;;;;6274968;22;20022;-86
2021/01/19 01:21:37;;;;;;;12.45;1.50;;;10.20;99.90;;;;;;6274645;22;20428;-86
2021/01/19 01:24:08;;;;;;;9.05;1.25;;;10.20;99.90;;;;;;6275281;22;20023;-86
2021/01/19 01:26:35;;;;;;;11.65;1.45;;;10.20;99.90;;;;;;6276678;22;20030;-86
2021/01/19 01:29:05;;;;;;;11.65;1.60;;;10.20;99.90;;;;;;6275885;22;20038;-87
2021/01/19 01:31:34;;;;;;;11.55;1.30;;;10.20;99.90;;;;;;6276266;22;20034;-87
2021/01/19 01:34:00;;;;;;;11.80;1.60;;;10.20;99.90;;;;;;6276086;22;20022;-86
2021/01/19 01:36:27;;;;;;;13.00;1.92;;;10.20;99.90;;;;;;6277705;22;20435;-86
2021/01/19 01:38:53;;;;;;;12.15;2.03;;;10.20;99.90;;;;;;6277000;22;20331;-86
2021/01/19 01:41:21;;;;;;;14.68;1.88;;;10.20;99.90;;;;;;6276856;22;20362;-87
2021/01/19 01:43:49;;;;;;;18.35;2.28;;;10.20;99.90;;;;;;6276874;22;20023;-86
2021/01/19 01:46:17;;;;;;;16.05;2.10;;;10.20;99.90;;;;;;6276024;22;20443;-86
2021/01/19 01:48:46;;;;;;;15.07;2.83;;;10.20;99.90;;;;;;6276077;22;20012;-87
2021/01/19 01:51:14;;;;;;;15.45;3.00;;;10.20;99.90;;;;;;6276420;22;20316;-86
2021/01/19 01:53:42;;;;;;;22.38;3.00;;;10.20;99.90;;;;;;6275926;22;20016;-86
2021/01/19 01:56:10;;;;;;;13.23;2.40;;;10.20;99.90;;;;;;6276295;22;20439;-86
2021/01/19 01:58:37;;;;;;;;;;;10.20;99.90;;;;;;6277065;22;20023;-87
2021/01/19 02:01:05;;;;;;;19.48;2.33;;;10.20;99.90;;;;;;6275749;22;19980;-86
2021/01/19 02:03:33;;;;;;;19.95;2.10;;;10.20;99.90;;;;;;6276398;22;20073;-87
2021/01/19 02:06:00;;;;;;;18.63;2.38;;;10.10;99.90;;;;;;6276170;22;20016;-87
2021/01/19 02:08:45;;;;;;;13.27;2.10;;;10.10;99.90;;;;;;6275812;22;20070;-87
2021/01/19 02:11:33;;;;;;;14.32;1.80;;;10.10;99.90;;;;;;6276099;22;20023;-87
2021/01/19 02:14:09;;;;;;;20.27;2.25;;;10.10;99.90;;;;;;6275397;22;20012;-87
2021/01/19 02:16:42;;;;;;;13.48;2.03;;;10.20;99.90;;;;;;6275916;22;20024;-87
2021/01/19 02:19:27;;;;;;;16.50;2.38;;;10.10;99.90;;;;;;6276109;22;20077;-87
2021/01/19 02:21:56;;;;;;;19.40;2.00;;;10.10;99.90;;;;;;6275758;22;20444;-87
2021/01/19 02:25:04;;;;;;;19.73;2.78;;;10.10;99.90;;;;;;6275666;22;20441;-87
2021/01/19 02:28:01;;;;;;;18.77;1.90;;;10.10;99.90;;;;;;6129549;23;20049;-87
2021/01/19 02:30:39;;;;;;;18.75;2.13;;;10.10;99.90;;;;;;6128909;23;20445;-87
2021/01/19 02:33:29;;;;;;;16.13;2.55;;;10.10;99.90;;;;;;6129942;23;20036;-86
2021/01/19 02:36:11;;;;;;;13.48;1.90;;;10.10;99.90;;;;;;6128906;23;20128;-86
2021/01/19 02:38:57;;;;;;;12.77;1.52;;;10.10;99.90;;;;;;6129325;23;20021;-86
2021/01/19 02:41:26;;;;;;;18.58;2.17;;;10.10;99.90;;;;;;6129471;23;20029;-87
2021/01/19 02:44:01;;;;;;;26.00;2.33;;;10.10;99.90;;;;;;6129672;23;20080;-86
2021/01/19 02:46:28;;;;;;;18.10;1.80;;;10.10;99.90;;;;;;6129436;23;20310;-87
2021/01/19 02:48:54;;;;;;;15.65;1.73;;;10.10;99.90;;;;;;6128982;23;20045;-87
2021/01/19 02:51:21;;;;;;;17.17;1.90;;;10.10;99.90;;;;;;6129219;23;20022;-87
2021/01/19 02:53:53;;;;;;;12.70;1.63;;;10.10;99.90;;;;;;6129189;23;20018;-87
2021/01/19 02:56:43;;;;;;;15.15;1.75;;;10.10;99.90;;;;;;6129058;23;20021;-86
2021/01/19 02:59:38;;;;;;;8.02;1.50;;;10.10;99.90;;;;;;6129123;23;20458;-87
2021/01/19 03:02:13;;;;;;;14.50;1.55;;;10.10;99.90;;;;;;6128724;23;20460;-87
2021/01/19 03:04:41;;;;;;;12.70;1.23;;;10.00;99.90;;;;;;6226378;22;20023;-87
2021/01/19 03:07:09;;;;;;;5.57;1.00;;;10.00;99.90;;;;;;6275584;22;20018;-86
2021/01/19 03:09:39;;;;;;;7.28;1.15;;;10.00;99.90;;;;;;6275398;22;20077;-87
2021/01/19 03:12:08;;;;;;;13.52;1.45;;;10.00;99.90;;;;;;6275382;22;20042;-86
2021/01/19 03:14:39;;;;;;;12.50;1.67;;;10.00;99.90;;;;;;6278999;22;20031;-87
2021/01/19 03:17:08;;;;;;;12.25;1.95;;;10.00;99.90;;;;;;6280540;22;20082;-87
2021/01/19 03:19:38;;;;;;;11.15;1.40;;;9.90;99.90;;;;;;6281130;22;20015;-87
2021/01/19 03:22:04;;;;;;;11.07;1.35;;;10.00;99.90;;;;;;6280548;22;20015;-87
2021/01/19 03:24:31;;;;;;;9.18;1.35;;;9.90;99.90;;;;;;6280236;22;20450;-87
2021/01/19 03:26:58;;;;;;;10.43;1.10;;;10.00;99.90;;;;;;6280350;22;20015;-87
2021/01/19 03:29:24;;;;;;;5.72;0.88;;;9.90;99.90;;;;;;6280777;22;20034;-87
2021/01/19 03:31:50;;;;;;;6.32;0.90;;;9.90;99.90;;;;;;6281005;22;20011;-87
2021/01/19 03:34:17;;;;;;;4.03;0.77;;;9.90;99.90;;;;;;6280505;22;20492;-87
2021/01/19 03:36:43;;;;;;;5.70;0.90;;;9.90;99.90;;;;;;6280214;22;20069;-87
2021/01/19 03:39:10;;;;;;;7.78;0.90;;;9.90;99.90;;;;;;6280018;22;20418;-87
2021/01/19 03:41:37;;;;;;;7.70;1.20;;;9.90;99.90;;;;;;6280150;22;20496;-87
2021/01/19 03:44:04;;;;;;;9.27;1.00;;;9.90;99.90;;;;;;6280121;22;20065;-87
2021/01/19 03:46:31;;;;;;;6.32;0.98;;;9.90;99.90;;;;;;6280483;22;20354;-87
2021/01/19 03:48:58;;;;;;;10.45;1.15;;;9.90;99.90;;;;;;6280294;22;20018;-87
2021/01/19 03:51:25;;;;;;;9.50;0.95;;;9.90;99.90;;;;;;6280556;22;20307;-87
2021/01/19 03:53:53;;;;;;;8.68;1.10;;;9.80;99.90;;;;;;6280605;22;20094;-87
2021/01/19 03:56:20;;;;;;;8.48;1.23;;;9.90;99.90;;;;;;6280487;22;20038;-87
2021/01/19 03:58:47;;;;;;;8.85;1.55;;;9.80;99.90;;;;;;6280309;22;20026;-87
2021/01/19 04:01:14;;;;;;;11.20;1.60;;;9.80;99.90;;;;;;6280168;22;20077;-87
2021/01/19 04:03:40;;;;;;;12.85;1.20;;;9.80;99.90;;;;;;6280588;22;20019;-87
2021/01/19 04:06:08;;;;;;;9.75;1.58;;;9.80;99.90;;;;;;6280303;22;20015;-87
2021/01/19 04:08:36;;;;;;;9.73;1.38;;;9.80;99.90;;;;;;6280525;22;20019;-87
2021/01/19 04:11:06;;;;;;;9.05;1.58;;;9.80;99.90;;;;;;6280251;22;20071;-87
2021/01/19 04:13:34;;;;;;;17.98;1.98;;;9.80;99.90;;;;;;6279567;22;20015;-87
2021/01/19 04:16:01;;;;;;;10.85;1.25;;;9.80;99.90;;;;;;6279378;22;20454;-87
2021/01/19 04:18:28;;;;;;;11.52;1.90;;;9.80;99.90;;;;;;6279726;22;20019;-87
2021/01/19 04:20:55;;;;;;;11.75;2.13;;;9.80;99.90;;;;;;6280534;22;20019;-87
2021/01/19 04:23:22;;;;;;;11.23;1.48;;;9.80;99.90;;;;;;6280109;22;20015;-87
2021/01/19 04:25:50;;;;;;;16.25;1.58;;;9.80;99.90;;;;;;6280862;22;20098;-87
2021/01/19 04:28:17;;;;;;;19.10;2.00;;;9.80;99.90;;;;;;6280125;22;20382;-87
2021/01/19 04:30:44;;;;;;;12.00;1.40;;;9.80;99.90;;;;;;6279844;22;20015;-87
2021/01/19 04:33:11;;;;;;;9.85;1.73;;;9.80;99.90;;;;;;6279947;22;20019;-87
2021/01/19 04:35:42;;;;;;;10.93;1.50;;;9.80;99.90;;;;;;6281365;22;20023;-86
2021/01/19 04:38:09;;;;;;;10.77;1.40;;;9.80;99.90;;;;;;6280268;22;20019;-86
2021/01/19 04:40:36;;;;;;;12.40;1.70;;;9.90;99.90;;;;;;6280213;22;20091;-87
2021/01/19 04:43:04;;;;;;;12.05;1.40;;;9.80;99.90;;;;;;6279876;22;20383;-87
2021/01/19 04:45:32;;;;;;;9.60;1.55;;;9.80;99.90;;;;;;6280273;22;20015;-87
2021/01/19 04:48:01;;;;;;;12.23;1.35;;;9.80;99.90;;;;;;6280487;22;20373;-87
2021/01/19 04:50:29;;;;;;;4.80;0.77;;;9.80;99.90;;;;;;6279995;22;20316;-87
2021/01/19 04:53:01;;;;;;;7.13;1.00;;;9.80;99.90;;;;;;6280963;22;20330;-87
2021/01/19 04:55:27;;;;;;;5.80;1.02;;;9.70;99.90;;;;;;6280190;22;20022;-87
2021/01/19 04:58:00;;;;;;;12.35;1.20;;;9.70;99.90;;;;;;6280198;22;20016;-87
2021/01/19 05:00:30;;;;;;;8.82;1.10;;;9.80;99.90;;;;;;6309518;22;20038;-87
2021/01/19 05:03:13;;;;;;;10.52;1.45;;;9.70;99.90;;;;;;6282647;22;20361;-87
2021/01/19 05:05:39;;;;;;;13.48;1.80;;;9.70;99.90;;;;;;6282410;22;20019;-87
2021/01/19 05:08:15;;;;;;;10.02;1.70;;;9.70;99.90;;;;;;6285892;22;20019;-87
2021/01/19 05:11:07;;;;;;;8.00;1.65;;;9.70;99.90;;;;;;6301982;22;20015;-87
2021/01/19 05:13:49;;;;;;;5.20;0.73;;;9.70;99.90;;;;;;6282425;22;20023;-87
2021/01/19 05:16:24;;;;;;;8.32;0.80;;;9.70;99.90;;;;;;6282141;22;20028;-87
2021/01/19 05:18:51;;;;;;;7.00;0.93;;;9.70;99.90;;;;;;6282272;22;20016;-87
2021/01/19 05:21:18;;;;;;;6.45;0.70;;;9.70;99.90;;;;;;6282064;22;20038;-87
2021/01/19 05:23:45;;;;;;;6.40;0.90;;;9.60;99.90;;;;;;6281912;22;20465;-86
2021/01/19 05:26:14;;;;;;;9.48;1.00;;;9.60;99.90;;;;;;6282167;22;20050;-87
2021/01/19 05:28:49;;;;;;;6.90;0.75;;;9.60;99.90;;;;;;6282333;22;20325;-87
2021/01/19 05:31:15;;;;;;;11.68;1.65;;;9.70;99.90;;;;;;6282050;22;20015;-87
2021/01/19 05:34:01;;;;;;;9.80;0.95;;;9.60;99.90;;;;;;6281914;22;20011;-87
2021/01/19 05:36:35;;;;;;;8.10;1.17;;;9.70;99.90;;;;;;6282194;22;20023;-87
2021/01/19 05:39:05;;;;;;;11.80;1.40;;;9.70;99.90;;;;;;6281793;22;20022;-87
2021/01/19 05:41:32;;;;;;;6.28;1.35;;;9.70;99.90;;;;;;6282135;22;20019;-87
2021/01/19 05:44:32;;;;;;;8.13;1.60;;;9.60;99.90;;;;;;6282019;22;20012;-87
2021/01/19 05:47:04;;;;;;;10.18;1.38;;;9.60;99.90;;;;;;6130416;23;20053;-88
2021/01/19 05:49:33;;;;;;;9.30;1.88;;;9.70;99.90;;;;;;6129934;23;20093;-87
2021/01/19 05:52:10;;;;;;;6.10;0.90;;;9.70;99.90;;;;;;6129337;23;20021;-88
2021/01/19 05:54:48;;;;;;;11.10;1.20;;;9.60;99.90;;;;;;6129879;23;20024;-87
2021/01/19 05:57:22;;;;;;;6.93;0.80;;;9.60;99.90;;;;;;6129611;23;20018;-87
2021/01/19 06:00:00;;;;;;;9.65;0.82;;;9.60;99.90;;;;;;6132178;23;20486;-88
2021/01/19 06:02:42;;;;;;;8.88;0.88;;;9.60;99.90;;;;;;6129959;23;20460;-88
2021/01/19 06:05:13;;;;;;;7.43;1.13;;;9.60;99.90;;;;;;6129867;23;20159;-86
2021/01/19 06:07:45;;;;;;;9.52;1.40;;;9.60;99.90;;;;;;6130291;23;20014;-86
2021/01/19 06:10:20;;;;;;;11.55;1.13;;;9.60;99.90;;;;;;6129568;23;20022;-87
2021/01/19 06:12:46;;;;;;;10.98;1.20;;;9.60;99.90;;;;;;6129568;23;20018;-87
2021/01/19 06:15:13;;;;;;;10.20;1.20;;;9.60;99.90;;;;;;6128424;23;20036;-86
2021/01/19 06:17:39;;;;;;;12.60;1.23;;;9.60;99.90;;;;;;6129587;23;20033;-87
2021/01/19 06:20:07;;;;;;;9.13;1.15;;;9.60;99.90;;;;;;6129435;23;20193;-87
2021/01/19 06:22:34;;;;;;;7.57;1.15;;;9.60;99.90;;;;;;6207093;22;20018;-87
2021/01/19 06:25:03;;;;;;;6.45;1.13;;;9.60;99.90;;;;;;6281297;22;20451;-86
2021/01/19 06:27:35;;;;;;;13.40;1.38;;;9.60;99.90;;;;;;6282304;22;20026;-87
2021/01/19 06:30:02;;;;;;;11.88;1.63;;;9.60;99.90;;;;;;6299087;22;20210;-87
2021/01/19 06:32:34;;;;;;;11.60;1.50;;;9.60;99.90;;;;;;6286260;22;20011;-86
2021/01/19 06:35:18;;;;;;;10.93;1.25;;;9.60;99.90;;;;;;6281717;22;20462;-87
2021/01/19 06:37:47;;;;;;;7.85;0.98;;;9.60;99.90;;;;;;6281674;22;20015;-86
2021/01/19 06:40:16;;;;;;;12.10;1.30;;;9.60;99.90;;;;;;6280899;22;20019;-86
2021/01/19 06:42:58;;;;;;;7.93;1.17;;;9.60;99.90;;;;;;6281140;22;20011;-87
2021/01/19 06:45:26;;;;;;;9.07;1.23;;;9.60;99.90;;;;;;6281273;22;20106;-87
2021/01/19 06:47:54;;;;;;;10.70;1.05;;;9.60;99.90;;;;;;6280957;22;20435;-87
2021/01/19 06:50:22;;;;;;;9.98;1.23;;;9.60;99.90;;;;;;6281401;22;20054;-86
2021/01/19 06:53:17;;;;;;;6.85;1.35;;;9.60;99.90;;;;;;6281472;22;20022;-87
2021/01/19 06:55:58;;;;;;;7.65;1.33;;;9.60;99.90;;;;;;6281822;22;20019;-88
2021/01/19 06:58:47;;;;;;;9.75;1.45;;;9.60;99.90;;;;;;6282492;22;20416;-87
2021/01/19 07:01:16;;;;;;;11.85;1.77;;;9.60;99.90;;;;;;6280855;22;20011;-87
2021/01/19 07:03:43;;;;;;;;;;;9.60;99.90;;;;;;6278921;22;20069;-86
2021/01/19 07:06:12;;;;;;;5.57;0.95;;;9.60;99.90;;;;;;6279037;22;19984;-88
2021/01/19 07:09:16;;;;;;;7.65;0.80;;;9.60;99.90;;;;;;6280166;22;20046;-87
2021/01/19 07:12:04;;;;;;;4.35;0.80;;;9.60;99.90;;;;;;6279752;22;20019;-87
2021/01/19 07:14:37;;;;;;;4.07;1.00;;;9.60;99.90;;;;;;6279201;22;20019;-87
2021/01/19 07:17:11;;;;;;;8.30;1.00;;;9.50;99.90;;;;;;6280369;22;20019;-88
2021/01/19 07:19:48;;;;;;;8.32;0.85;;;9.60;99.90;;;;;;6280885;22;20022;-88
2021/01/19 07:22:51;;;;;;;9.20;1.10;;;9.60;99.90;;;;;;6280185;22;20035;-88
2021/01/19 07:25:18;;;;;;;9.27;1.10;;;9.60;99.90;;;;;;6280576;22;20309;-88
2021/01/19 07:27:45;;;;;;;7.07;0.95;;;9.60;99.90;;;;;;6280547;22;20435;-87
2021/01/19 07:30:14;;;;;;;5.45;1.38;;;9.60;99.90;;;;;;6280838;22;20015;-88
2021/01/19 07:32:44;;;;;;;5.40;0.95;;;9.60;99.90;;;;;;6281155;22;20015;-88
2021/01/19 07:35:12;;;;;;;4.93;0.90;;;9.60;99.90;;;;;;6280636;22;20022;-87
2021/01/19 07:37:39;;;;;;;4.75;0.80;;;9.60;99.90;;;;;;6281200;22;20504;-88
2021/01/19 07:40:19;;;;;;;6.95;0.95;;;9.60;99.90;;;;;;6280613;22;20415;-88
2021/01/19 07:42:46;;;;;;;11.02;1.00;;;9.60;99.90;;;;;;6280323;22;20360;-87
2021/01/19 07:45:14;;;;;;;7.63;1.08;;;9.60;99.90;;;;;;6281044;22;20378;-87
2021/01/19 07:47:44;;;;;;;8.32;1.27;;;9.60;99.90;;;;;;6290331;22;20019;-87
2021/01/19 07:50:17;;;;;;;7.07;1.10;;;9.60;99.90;;;;;;6295482;22;20463;-88
2021/01/19 07:52:46;;;;;;;7.68;1.52;;;9.60;99.90;;;;;;6282194;22;20019;-87
2021/01/19 07:55:21;;;;;;;9.82;1.20;;;9.50;99.90;;;;;;6280479;22;20500;-87
2021/01/19 07:57:52;;;;;;;8.80;1.25;;;9.60;99.90;;;;;;6280448;22;20019;-87
2021/01/19 08:00:27;;;;;;;9.80;1.50;;;9.60;99.90;;;;;;6280581;22;20011;-88
2021/01/19 08:03:04;;;;;;;10.75;1.10;;;9.50;99.90;;;;;;6280745;22;20065;-87
2021/01/19 08:05:31;;;;;;;6.45;1.42;;;9.60;99.90;;;;;;6280421;22;20399;-87
2021/01/19 08:07:58;;;;;;;5.50;0.90;;;9.50;99.90;;;;;;6280847;22;20023;-87
2021/01/19 08:10:27;;;;;;;9.52;1.17;;;9.60;99.90;;;;;;6280842;22;20045;-87
2021/01/19 08:12:56;;;;;;;8.90;0.93;;;9.60;99.90;;;;;;6280238;22;20011;-87
2021/01/19 08:15:31;;;;;;;5.63;1.33;;;9.60;99.90;;;;;;6279240;22;20080;-87
2021/01/19 08:17:59;;;;;;;7.53;1.10;;;9.60;99.90;;;;;;6307251;22;20015;-87
2021/01/19 08:20:36;;;;;;;6.63;0.90;;;9.60;99.90;;;;;;6280854;22;20049;-87
2021/01/19 08:23:17;;;;;;;6.20;1.05;;;9.60;99.90;;;;;;6280273;22;20086;-86
2021/01/19 08:25:45;;;;;;;11.00;1.30;;;9.60;99.90;;;;;;6280356;22;20318;-87
2021/01/19 08:28:13;;;;;;;8.82;1.00;;;9.60;99.90;;;;;;6280673;22;20058;-87
2021/01/19 08:30:40;;;;;;;8.40;1.13;;;9.60;99.90;;;;;;6289064;22;20443;-86
2021/01/19 08:33:08;;;;;;;8.20;0.98;;;9.70;99.90;;;;;;6285546;22;20443;-87
2021/01/19 08:35:38;;;;;;;6.95;1.40;;;9.70;99.90;;;;;;6282527;22;20069;-87
2021/01/19 08:38:04;;;;;;;12.90;1.17;;;9.70;99.90;;;;;;6282491;22;20042;-86
2021/01/19 08:40:33;;;;;;;11.95;1.58;;;9.70;99.90;;;;;;6282998;22;20019;-87
2021/01/19 08:43:03;;;;;;;13.93;1.20;;;9.70;99.90;;;;;;6282103;22;20015;-87
2021/01/19 08:45:32;;;;;;;9.85;1.20;;;9.70;99.90;;;;;;6282167;22;20362;-87
2021/01/19 08:48:02;;;;;;;10.15;1.50;;;9.70;99.90;;;;;;6282471;22;20682;-87
2021/01/19 08:50:32;;;;;;;10.77;1.73;;;9.70;99.90;;;;;;6282533;22;20023;-87
2021/01/19 08:53:15;;;;;;;10.07;1.60;;;9.70;99.90;;;;;;6282885;22;20069;-87
2021/01/19 08:55:45;;;;;;;7.85;1.67;;;9.70;99.90;;;;;;6282504;22;20019;-87
2021/01/19 08:58:21;;;;;;;12.27;1.85;;;9.70;99.90;;;;;;6282399;22;20439;-87
2021/01/19 09:00:48;;;;;;;12.32;2.00;;;9.70;99.90;;;;;;6281771;22;20019;-87
2021/01/19 09:03:16;;;;;;;12.82;1.60;;;9.80;99.90;;;;;;6282534;22;20081;-86
2021/01/19 09:06:04;;;;;;;8.23;2.20;;;9.80;99.90;;;;;;6291924;22;20058;-87
2021/01/19 09:08:32;;;;;;;16.63;2.88;;;9.80;99.90;;;;;;6283101;22;20086;-87
2021/01/19 09:11:07;;;;;;;17.40;2.58;;;9.80;99.90;;;;;;6282197;22;20073;-87
2021/01/19 09:13:49;;;;;;;12.95;1.95;;;9.80;99.90;;;;;;6285330;22;20073;-87
2021/01/19 09:16:24;;;;;;;14.82;2.38;;;9.80;99.90;;;;;;6281963;22;20019;-87
2021/01/19 09:18:53;;;;;;;13.18;2.35;;;9.90;99.90;;;;;;6281927;22;20015;-87
2021/01/19 09:21:20;;;;;;;8.63;1.92;;;9.90;99.90;;;;;;6281996;22;20016;-86
2021/01/19 09:23:46;;;;;;;10.32;2.17;;;9.90;99.90;;;;;;6282181;22;20088;-86
2021/01/19 09:26:13;;;;;;;7.00;1.80;;;9.90;99.90;;;;;;6282139;22;20011;-87
2021/01/19 09:28:39;;;;;;;13.65;2.30;;;9.90;99.90;;;;;;6282457;22;20334;-87
2021/01/19 09:31:16;;;;;;;10.23;2.40;;;10.00;99.90;;;;;;6281610;22;20020;-87
2021/01/19 09:33:53;;;;;;;11.23;2.40;;;10.00;99.90;;;;;;6281566;22;20011;-87
2021/01/19 09:36:21;;;;;;;9.93;2.47;;;10.00;99.90;;;;;;6281910;22;20019;-87
2021/01/19 09:38:51;;;;;;;10.85;2.28;;;10.00;99.90;;;;;;6282179;22;20011;-87
2021/01/19 09:41:21;;;;;;;5.70;1.85;;;10.10;99.90;;;;;;6281668;22;20045;-87
2021/01/19 09:43:53;;;;;;;7.43;2.55;;;10.10;99.90;;;;;;6282080;22;20019;-87
2021/01/19 09:46:25;;;;;;;11.15;2.85;;;10.10;99.90;;;;;;6281809;22;20011;-87
2021/01/19 09:48:57;;;;;;;13.60;3.03;;;10.10;99.90;;;;;;6282395;22;20069;-87
2021/01/19 09:51:28;;;;;;;10.27;2.22;;;10.10;99.90;;;;;;6282081;22;20102;-86
2021/01/19 09:53:58;;;;;;;10.70;3.20;;;10.10;99.90;;;;;;6281550;22;20022;-87
2021/01/19 09:56:26;;;;;;;7.85;3.00;;;10.10;99.90;;;;;;6281417;22;20019;-87
2021/01/19 09:59:12;;;;;;;8.57;3.40;;;10.10;99.90;;;;;;6281939;22;20018;-88
2021/01/19 10:01:38;;;;;;;9.75;3.40;;;10.10;99.90;;;;;;6281547;22;20355;-87
2021/01/19 10:04:15;;;;;;;12.25;3.47;;;10.10;99.90;;;;;;6281569;22;20382;-87
2021/01/19 10:06:42;;;;;;;13.55;3.20;;;10.20;99.90;;;;;;6281835;22;20466;-87
2021/01/19 10:09:08;;;;;;;9.93;3.50;;;10.20;99.90;;;;;;6281082;22;20034;-87
2021/01/19 10:11:36;;;;;;;11.13;3.65;;;10.20;99.90;;;;;;6281673;22;20019;-87
2021/01/19 10:14:10;;;;;;;13.90;3.80;;;10.20;99.90;;;;;;6281118;22;20015;-87
2021/01/19 10:16:50;;;;;;;12.18;4.50;;;10.20;99.90;;;;;;6281794;22;20073;-87
2021/01/19 10:19:26;;;;;;;14.35;4.95;;;10.20;99.90;;;;;;6281931;22;20019;-87
2021/01/19 10:21:58;;;;;;;12.00;4.65;;;10.30;99.90;;;;;;6287516;22;20019;-88
2021/01/19 10:24:25;;;;;;;10.85;5.00;;;10.30;99.90;;;;;;6282733;22;20012;-87
2021/01/19 10:26:58;;;;;;;14.02;5.32;;;10.30;99.90;;;;;;6281603;22;20022;-87
2021/01/19 10:29:25;;;;;;;13.02;5.60;;;10.30;99.90;;;;;;6282222;22;20020;-87
2021/01/19 10:31:59;;;;;;;13.38;7.03;;;10.30;99.90;;;;;;6286697;22;20014;-87
2021/01/19 10:34:28;;;;;;;17.65;7.07;;;10.40;99.90;;;;;;6281851;22;20023;-87
2021/01/19 10:36:56;;;;;;;15.18;7.22;;;10.40;99.90;;;;;;6281819;22;20038;-87
2021/01/19 10:39:24;;;;;;;16.63;7.30;;;10.40;99.90;;;;;;6281156;22;20019;-87
2021/01/19 10:41:53;;;;;;;15.52;6.68;;;10.40;99.90;;;;;;6281288;22;20015;-87
2021/01/19 10:44:22;;;;;;;15.07;7.25;;;10.40;99.90;;;;;;6281077;22;20327;-88
2021/01/19 10:46:58;;;;;;;16.67;7.45;;;10.50;99.90;;;;;;6281797;22;20019;-87
2021/01/19 10:49:32;;;;;;;21.08;7.60;;;10.50;99.90;;;;;;6280633;22;20374;-88
2021/01/19 10:51:59;;;;;;;21.27;7.88;;;10.60;99.90;;;;;;6281192;22;20074;-87
2021/01/19 10:54:26;;;;;;;17.40;6.85;;;10.60;99.90;;;;;;6281121;22;20019;-88
2021/01/19 10:57:07;;;;;;;17.75;7.65;;;10.60;99.90;;;;;;6280687;22;20373;-88
2021/01/19 10:59:34;;;;;;;23.30;7.70;;;10.70;99.90;;;;;;6281529;22;20077;-88
2021/01/19 11:02:02;;;;;;;23.15;7.65;;;10.60;99.90;;;;;;6281030;22;20015;-88
2021/01/19 11:04:29;;;;;;;23.30;8.27;;;10.70;99.90;;;;;;6281316;22;20012;-87
2021/01/19 11:06:55;;;;;;;16.20;8.43;;;10.70;99.90;;;;;;6280943;22;20019;-88
2021/01/19 11:09:22;;;;;;;14.32;8.80;;;10.80;99.90;;;;;;6280430;22;20065;-88
2021/01/19 11:11:49;;;;;;;11.88;7.57;;;10.80;99.90;;;;;;6280705;22;20094;-88
2021/01/19 11:14:15;;;;;;;16.83;7.85;;;10.80;99.90;;;;;;6280337;22;20015;-88
2021/01/19 11:16:43;;;;;;;10.88;7.78;;;10.90;99.90;;;;;;6281549;22;20015;-88
2021/01/19 11:19:14;;;;;;;15.40;7.78;;;10.90;99.90;;;;;;6280847;22;20034;-88
2021/01/19 11:21:42;;;;;;;14.70;6.80;;;11.00;99.90;;;;;;6280724;22;20453;-89
2021/01/19 11:24:11;;;;;;;14.90;8.00;;;11.00;99.90;;;;;;6280862;22;20012;-88
2021/01/19 11:26:41;;;;;;;10.68;7.65;;;11.10;99.90;;;;;;6280853;22;20098;-88
2021/01/19 11:29:25;;;;;;;15.33;8.90;;;11.20;99.90;;;;;;6285034;22;20019;-89
2021/01/19 11:31:52;;;;;;;11.90;9.05;;;11.20;99.90;;;;;;6281478;22;20026;-88
2021/01/19 11:34:19;;;;;;;15.15;7.15;;;11.30;99.90;;;;;;6281262;22;20018;-88
2021/01/19 11:36:45;;;;;;;14.88;7.00;;;11.30;99.90;;;;;;6285058;22;20019;-88
2021/01/19 11:39:13;;;;;;;16.60;7.95;;;11.40;99.90;;;;;;6291757;22;20016;-88
2021/01/19 11:41:40;;;;;;;44.28;20.83;;;11.50;99.90;;;;;;6278875;22;20042;-89
2021/01/19 11:44:07;;;;;;;13.20;7.25;;;11.50;99.90;;;;;;6278949;22;20012;-89
2021/01/19 11:46:34;;;;;;;15.10;7.60;;;11.50;99.90;;;;;;6277908;22;20090;-89
2021/01/19 11:49:03;;;;;;;16.70;7.88;;;11.60;99.90;;;;;;6277580;22;20042;-89
2021/01/19 11:51:31;;;;;;;;;;;11.60;99.90;;;;;;6278520;22;20022;-88
2021/01/19 11:54:00;;;;;;;16.33;8.38;;;11.60;99.90;;;;;;6278048;22;19918;-87
2021/01/19 11:56:42;;;;;;;13.93;7.63;;;11.70;99.90;;;;;;6277357;22;20030;-86
2021/01/19 11:59:10;;;;;;;16.35;8.45;;;11.70;99.90;;;;;;6277530;22;20034;-88
2021/01/19 12:01:38;;;;;;;14.15;7.88;;;11.60;99.90;;;;;;6277180;22;20564;-88
2021/01/19 12:04:06;;;;;;;15.23;7.83;;;11.60;99.90;;;;;;6277296;22;20025;-88
2021/01/19 12:06:34;;;;;;;18.35;7.90;;;11.60;99.90;;;;;;6277630;22;20015;-88
2021/01/19 12:09:00;;;;;;;14.38;7.03;;;11.60;99.90;;;;;;6278408;22;20377;-87
2021/01/19 12:11:27;;;;;;;13.80;7.30;;;11.60;99.90;;;;;;6277117;22;20019;-88
2021/01/19 12:13:53;;;;;;;16.05;7.57;;;11.60;99.90;;;;;;6277064;22;20011;-88
2021/01/19 12:16:21;;;;;;;13.40;6.40;;;11.60;99.90;;;;;;6273695;22;20047;-87
2021/01/19 12:18:52;;;;;;;19.48;6.22;;;11.60;99.90;;;;;;6274495;22;20011;-88
2021/01/19 12:21:23;;;;;;;16.23;6.47;;;11.60;99.90;;;;;;6274272;22;20031;-87
2021/01/19 12:23:49;;;;;;;13.32;5.47;;;11.60;99.90;;;;;;6274631;22;20335;-87
2021/01/19 12:26:16;;;;;;;11.57;5.05;;;11.60;99.90;;;;;;6275679;22;20043;-88
2021/01/19 12:28:43;;;;;;;12.75;5.57;;;11.60;99.90;;;;;;6275505;22;20015;-86
2021/01/19 12:31:10;;;;;;;11.80;4.70;;;11.60;99.90;;;;;;6274567;22;20069;-87
2021/01/19 12:33:38;;;;;;;18.50;5.32;;;11.50;99.90;;;;;;6275250;22;20019;-87
2021/01/19 12:36:05;;;;;;;11.05;4.57;;;11.50;99.90;;;;;;6275193;22;20035;-88
2021/01/19 12:38:32;;;;;;;9.63;4.50;;;11.50;99.90;;;;;;6275180;22;20027;-87
2021/01/19 12:40:59;;;;;;;10.00;4.20;;;11.50;99.90;;;;;;6275449;22;20015;-88
2021/01/19 12:43:26;;;;;;;11.73;4.03;;;11.50;99.90;;;;;;6274772;22;20088;-88
2021/01/19 12:45:53;;;;;;;9.73;4.13;;;11.50;99.90;;;;;;6274450;22;20027;-87
2021/01/19 12:48:19;;;;;;;13.63;5.20;;;11.60;99.90;;;;;;6275271;22;20042;-87
2021/01/19 12:50:46;;;;;;;12.43;4.63;;;11.60;99.90;;;;;;6278442;22;20023;-88
2021/01/19 12:53:12;;;;;;;9.75;4.10;;;11.60;99.90;;;;;;6280854;22;20038;-88
2021/01/19 12:55:39;;;;;;;11.02;4.35;;;11.60;99.90;;;;;;6276103;22;20301;-87
2021/01/19 12:58:05;;;;;;;13.32;4.47;;;11.70;99.90;;;;;;6275180;22;20336;-87
2021/01/19 13:00:32;;;;;;;15.07;5.00;;;11.70;99.90;;;;;;6274947;22;20016;-87
2021/01/19 13:02:58;;;;;;;9.32;4.57;;;11.70;99.90;;;;;;6274668;22;20012;-88